Time;durP1;ratioP1;P1;durP2;ratioP2;P2;SDS_P1;SDS_P2;PMS_P1;PMS_P2;Temp;Humidity;BMP_temperature;BMP_pressure;BME280_temperature;BME280_humidity;BME280_pressure;Samples;Min_cycle;Max_cycle;Signal;HPM_P1;HPM_P2
2024/01/03 00:01:05;;;;;;;67.88;63.78;;;;;;;-1.03;100.00;100779.28;4966387;28;20549;-56
2024/01/03 00:03:32;;;;;;;55.97;52.97;;;;;;;-1.50;100.00;100774.47;4960276;28;20505;-57
2024/01/03 00:06:01;;;;;;;54.30;51.38;;;;;;;-1.48;100.00;100764.75;4957779;28;20047;-56
2024/01/03 00:08:34;;;;;;;51.92;49.03;;;;;;;-1.50;100.00;100763.22;4963852;28;20138;-57
2024/01/03 00:11:01;;;;;;;;;;;;;;;-1.69;100.00;100762.13;4962350;28;20046;-56
2024/01/03 00:13:59;;;;;;;47.90;45.17;;;;;;;-1.42;100.00;100759.03;4957546;28;19941;-56
2024/01/03 00:16:26;;;;;;;28.02;25.70;;;;;;;-1.40;100.00;100767.53;4960030;28;20117;-57
2024/01/03 00:18:54;;;;;;;29.73;27.73;;;;;;;-1.47;100.00;100778.59;4959966;28;20062;-56
2024/01/03 00:21:25;;;;;;;31.25;29.05;;;;;;;-1.30;100.00;100765.00;4959554;28;20051;-56
2024/01/03 00:23:55;;;;;;;26.75;24.85;;;;;;;-1.18;100.00;100774.41;4960161;28;20145;-57
2024/01/03 00:26:23;;;;;;;23.92;22.35;;;;;;;-1.24;100.00;100772.31;4965863;28;20070;-56
2024/01/03 00:28:50;;;;;;;31.88;29.25;;;;;;;-1.04;100.00;100772.41;4965201;28;20424;-57
2024/01/03 00:31:41;;;;;;;49.97;47.33;;;;;;;-1.06;100.00;100780.38;4967596;28;20066;-57
2024/01/03 00:34:32;;;;;;;82.22;78.03;;;;;;;-0.62;100.00;100777.56;4960198;28;20054;-57
2024/01/03 00:36:59;;;;;;;83.95;79.65;;;;;;;-0.73;100.00;100784.53;4962725;28;20043;-57
2024/01/03 00:39:32;;;;;;;94.72;89.30;;;;;;;-0.92;100.00;100776.59;4963840;28;20050;-56
2024/01/03 00:41:59;;;;;;;86.20;81.60;;;;;;;-0.16;100.00;100784.81;4967822;28;20058;-56
2024/01/03 00:44:26;;;;;;;59.28;55.95;;;;;;;-0.77;100.00;100792.72;4964472;28;20050;-57
2024/01/03 00:46:55;;;;;;;25.98;24.27;;;;;;;-0.56;100.00;100790.06;4963822;28;20046;-57
2024/01/03 00:49:23;;;;;;;29.00;26.83;;;;;;;-0.66;100.00;100789.22;4959425;28;20054;-56
2024/01/03 00:51:51;;;;;;;31.35;29.23;;;;;;;-0.27;100.00;100785.75;4960895;28;20047;-57
2024/01/03 00:54:20;;;;;;;42.38;39.67;;;;;;;-0.44;100.00;100799.44;4960749;28;20604;-57
2024/01/03 00:56:49;;;;;;;61.20;57.97;;;;;;;-0.13;100.00;100792.38;4952513;28;20066;-57
2024/01/03 00:59:17;;;;;;;71.80;68.00;;;;;;;0.12;100.00;100787.59;4958864;28;20493;-56
2024/01/03 01:01:45;;;;;;;68.47;64.88;;;;;;;-0.16;100.00;100784.81;4959310;28;20144;-57
2024/01/03 01:04:13;;;;;;;82.07;77.78;;;;;;;-0.07;100.00;100770.13;4964424;28;20508;-57
2024/01/03 01:06:41;;;;;;;67.93;64.03;;;;;;;-0.43;100.00;100771.56;4963940;28;20047;-57
2024/01/03 01:09:08;;;;;;;55.08;51.90;;;;;;;0.02;100.00;100766.69;4958437;28;20564;-57
2024/01/03 01:11:35;;;;;;;64.53;60.83;;;;;;;0.12;100.00;100759.72;4966245;28;20057;-56
2024/01/03 01:14:04;;;;;;;87.35;82.45;;;;;;;0.33;100.00;100753.50;4956998;28;20062;-56
2024/01/03 01:16:30;;;;;;;94.07;88.82;;;;;;;0.55;100.00;100749.78;4961074;28;20043;-56
2024/01/03 01:18:57;;;;;;;30.70;28.40;;;;;;;0.59;100.00;100743.31;4963232;28;20513;-57
2024/01/03 01:21:24;;;;;;;25.80;23.80;;;;;;;0.59;100.00;100751.97;4962279;28;20074;-57
2024/01/03 01:23:51;;;;;;;58.47;54.97;;;;;;;0.51;100.00;100751.00;4958563;28;20057;-57
2024/01/03 01:26:18;;;;;;;68.15;64.22;;;;;;;0.40;100.00;100752.81;4961416;28;20239;-57
2024/01/03 01:28:44;;;;;;;57.70;54.10;;;;;;;0.65;100.00;100753.19;4966408;28;20520;-57
2024/01/03 01:31:13;;;;;;;55.33;52.03;;;;;;;0.40;100.00;100750.22;4962794;28;20143;-56
2024/01/03 01:33:39;;;;;;;68.20;64.30;;;;;;;0.55;100.00;100749.78;4954203;28;20055;-56
2024/01/03 01:36:07;;;;;;;75.82;71.47;;;;;;;0.53;100.00;100755.13;4958417;28;20054;-56
2024/01/03 01:38:34;;;;;;;53.58;50.35;;;;;;;0.58;100.00;100760.78;4961075;28;20071;-56
2024/01/03 01:41:00;;;;;;;59.90;56.30;;;;;;;0.53;100.00;100759.56;4959059;28;20431;-56
2024/01/03 01:43:27;;;;;;;27.08;24.98;;;;;;;0.56;100.00;100754.84;4955997;28;20063;-57
2024/01/03 01:45:54;;;;;;;28.20;25.90;;;;;;;0.60;100.00;100756.22;4959703;28;20044;-57
2024/01/03 01:48:23;;;;;;;55.70;52.30;;;;;;;0.78;100.00;100748.47;4963259;28;20051;-57
2024/01/03 01:50:50;;;;;;;48.83;45.72;;;;;;;0.83;100.00;100748.06;4958366;28;20494;-56
2024/01/03 01:53:17;;;;;;;52.42;49.22;;;;;;;0.93;100.00;100743.63;4962565;28;20058;-57
2024/01/03 01:55:45;;;;;;;47.17;44.28;;;;;;;0.94;100.00;100760.13;4953868;28;20074;-57
2024/01/03 01:58:13;;;;;;;55.72;51.92;;;;;;;0.65;100.00;100747.97;4956985;28;20046;-56
2024/01/03 02:00:41;;;;;;;48.00;45.10;;;;;;;0.81;100.00;100736.91;4961055;28;20443;-57
2024/01/03 02:03:09;;;;;;;25.27;23.38;;;;;;;0.90;100.00;100733.44;4955532;28;20539;-57
2024/01/03 02:05:38;;;;;;;29.58;27.38;;;;;;;1.01;100.00;100729.84;4957473;28;20051;-56
2024/01/03 02:08:08;;;;;;;33.30;30.90;;;;;;;0.96;100.00;100727.66;4959516;28;20047;-57
2024/01/03 02:10:35;;;;;;;28.67;26.58;;;;;;;1.02;100.00;100713.19;4956403;28;20105;-57
2024/01/03 02:13:02;;;;;;;30.70;28.40;;;;;;;1.09;100.00;100709.00;4961670;28;20051;-56
2024/01/03 02:15:28;;;;;;;30.35;28.05;;;;;;;1.01;100.00;100707.13;4960424;28;20058;-57
2024/01/03 02:17:56;;;;;;;30.52;28.25;;;;;;;1.20;100.00;100700.97;4960138;28;20061;-57
2024/01/03 02:20:25;;;;;;;28.33;26.23;;;;;;;1.23;100.00;100694.63;4958300;28;20050;-57
2024/01/03 02:22:53;;;;;;;25.90;24.00;;;;;;;1.12;100.00;100699.09;4960017;28;20062;-57
2024/01/03 02:25:20;;;;;;;29.50;27.40;;;;;;;1.16;100.00;100699.63;4955124;28;20053;-57
2024/01/03 02:27:47;;;;;;;31.35;29.05;;;;;;;1.28;100.00;100690.63;4956175;28;20428;-57
2024/01/03 02:30:15;;;;;;;30.25;28.15;;;;;;;1.11;100.00;100681.75;4957736;28;20517;-57
2024/01/03 02:32:41;;;;;;;30.05;27.95;;;;;;;1.10;100.00;100681.91;4956671;28;20158;-56
2024/01/03 02:35:09;;;;;;;31.00;28.80;;;;;;;1.18;100.00;100684.63;4953713;28;20925;-57
2024/01/03 02:37:36;;;;;;;30.48;28.38;;;;;;;1.22;100.00;100685.97;4958902;28;20521;-57
2024/01/03 02:40:05;;;;;;;30.10;28.02;;;;;;;1.11;100.00;100681.75;4960513;28;20055;-57
2024/01/03 02:42:32;;;;;;;29.20;27.00;;;;;;;1.01;100.00;100677.53;4957644;28;20437;-56
2024/01/03 02:44:59;;;;;;;37.13;34.63;;;;;;;1.09;100.00;100683.69;4958143;28;20051;-57
2024/01/03 02:47:25;;;;;;;29.20;27.00;;;;;;;1.18;100.00;100674.16;4962535;28;20432;-57
2024/01/03 02:49:57;;;;;;;30.02;27.95;;;;;;;1.18;100.00;100674.16;4959977;28;20070;-56
2024/01/03 02:52:25;;;;;;;34.40;31.60;;;;;;;1.21;100.00;100673.00;4958017;28;20643;-57
2024/01/03 02:54:52;;;;;;;31.45;28.98;;;;;;;1.20;100.00;100672.19;4953115;28;20114;-56
2024/01/03 02:57:21;;;;;;;32.85;30.42;;;;;;;1.21;100.00;100671.25;4958229;28;20054;-56
2024/01/03 02:59:48;;;;;;;29.00;26.80;;;;;;;1.09;100.00;100677.63;4959942;28;20055;-56
2024/01/03 03:02:15;;;;;;;29.90;27.75;;;;;;;1.16;100.00;100681.31;4959655;28;20059;-57
2024/01/03 03:04:41;;;;;;;27.45;25.50;;;;;;;1.14;100.00;100675.41;4922953;28;1279423;-57
2024/01/03 03:07:08;;;;;;;26.63;24.83;;;;;;;1.21;100.00;100667.78;4963023;28;20055;-57
2024/01/03 03:09:35;;;;;;;29.08;26.88;;;;;;;1.23;100.00;100668.47;4962960;28;20055;-57
2024/01/03 03:12:02;;;;;;;28.63;26.83;;;;;;;1.22;100.00;100658.97;4969854;28;20059;-56
2024/01/03 03:14:30;;;;;;;27.77;26.17;;;;;;;1.29;100.00;100660.84;4962651;28;20059;-57
2024/01/03 03:16:57;;;;;;;28.08;26.27;;;;;;;1.33;100.00;100662.22;4958477;28;20058;-57
2024/01/03 03:19:24;;;;;;;30.05;27.95;;;;;;;1.33;100.00;100654.38;4965153;28;20509;-57
2024/01/03 03:21:51;;;;;;;29.08;27.27;;;;;;;1.34;100.00;100648.16;4957707;28;20055;-57
2024/01/03 03:24:21;;;;;;;28.15;26.25;;;;;;;1.42;100.00;100650.00;4964150;28;20054;-57
2024/01/03 03:26:48;;;;;;;25.92;24.23;;;;;;;1.46;100.00;100640.91;4960534;28;20066;-57
2024/01/03 03:29:15;;;;;;;25.48;23.70;;;;;;;1.38;100.00;100646.06;4964783;28;20110;-57
2024/01/03 03:31:43;;;;;;;25.90;23.90;;;;;;;1.44;100.00;100634.19;4960877;28;20077;-56
2024/01/03 03:34:10;;;;;;;27.38;25.48;;;;;;;1.38;100.00;100625.94;4961299;28;20082;-57
2024/01/03 03:36:37;;;;;;;26.67;24.67;;;;;;;1.46;100.00;100624.41;4962729;28;20057;-57
2024/01/03 03:39:07;;;;;;;27.50;25.35;;;;;;;1.54;100.00;100621.84;4964589;28;20512;-57
2024/01/03 03:41:34;;;;;;;27.25;24.95;;;;;;;1.58;100.00;100608.31;4961163;28;20134;-56
2024/01/03 03:44:01;;;;;;;26.77;24.58;;;;;;;1.51;100.00;100601.19;4961660;28;20047;-57
2024/01/03 03:46:28;;;;;;;26.80;24.75;;;;;;;1.51;100.00;100615.13;4956577;28;20055;-56
2024/01/03 03:48:56;;;;;;;26.90;24.80;;;;;;;1.47;100.00;100613.75;4964464;28;20508;-57
2024/01/03 03:51:23;;;;;;;28.20;26.00;;;;;;;1.46;100.00;100608.69;4961529;28;20524;-57
2024/01/03 03:53:50;;;;;;;28.88;26.58;;;;;;;1.55;100.00;100615.66;4966603;28;20061;-57
2024/01/03 03:56:23;;;;;;;27.55;25.55;;;;;;;1.53;100.00;100612.34;4967773;28;20059;-56
2024/01/03 03:58:50;;;;;;;28.50;26.40;;;;;;;1.55;100.00;100615.66;4957514;28;20055;-57
2024/01/03 04:01:17;;;;;;;28.00;26.00;;;;;;;1.65;100.00;100610.31;4960470;28;20066;-57
2024/01/03 04:03:44;;;;;;;25.90;24.00;;;;;;;1.65;100.00;100616.38;4963394;28;20474;-56
2024/01/03 04:06:14;;;;;;;25.45;23.58;;;;;;;1.63;100.00;100610.47;4957160;28;20047;-57
2024/01/03 04:08:44;;;;;;;25.88;23.98;;;;;;;1.63;100.00;100620.13;4960366;28;20122;-57
2024/01/03 04:11:11;;;;;;;28.48;26.35;;;;;;;1.75;100.00;100622.34;4963650;28;20497;-56
2024/01/03 04:13:39;;;;;;;27.70;25.60;;;;;;;1.89;100.00;100617.56;4963997;28;20109;-56
2024/01/03 04:16:06;;;;;;;27.15;25.17;;;;;;;1.92;100.00;100615.47;4958937;28;20094;-56
2024/01/03 04:18:34;;;;;;;26.05;23.88;;;;;;;1.95;100.00;100616.97;4959431;28;20051;-56
2024/01/03 04:21:05;;;;;;;27.30;25.20;;;;;;;2.00;100.00;100612.09;4961827;28;20078;-56
2024/01/03 04:23:33;;;;;;;44.90;42.00;;;;;;;2.01;100.00;100619.78;4960417;28;20057;-57
2024/01/03 04:26:00;;;;;;;49.00;46.10;;;;;;;2.13;100.00;100607.25;4961884;28;20062;-57
2024/01/03 04:28:27;;;;;;;57.83;54.45;;;;;;;2.19;100.00;100606.66;4962988;28;20055;-57
2024/01/03 04:30:54;;;;;;;49.80;46.80;;;;;;;2.17;100.00;100608.59;4962800;28;20046;-57
2024/01/03 04:33:21;;;;;;;54.13;50.92;;;;;;;2.15;100.00;100609.72;4960538;28;20066;-57
2024/01/03 04:35:48;;;;;;;46.00;43.40;;;;;;;2.21;100.00;100609.09;4950796;28;20050;-57
2024/01/03 04:38:14;;;;;;;35.75;33.85;;;;;;;2.14;100.00;100615.94;4958268;28;20051;-57
2024/01/03 04:40:43;;;;;;;38.22;36.13;;;;;;;2.18;100.00;100612.88;4961867;28;20051;-56
2024/01/03 04:43:09;;;;;;;42.42;40.22;;;;;;;2.16;100.00;100603.53;4965448;28;20070;-57
2024/01/03 04:45:36;;;;;;;26.65;24.85;;;;;;;2.13;100.00;100598.59;4967123;28;20351;-56
2024/01/03 04:48:04;;;;;;;26.83;24.83;;;;;;;2.16;100.00;100591.22;4964950;28;20109;-57
2024/01/03 04:50:31;;;;;;;25.80;24.00;;;;;;;2.12;100.00;100597.78;4963146;28;20046;-58
2024/01/03 04:52:59;;;;;;;28.73;26.33;;;;;;;2.18;100.00;100586.66;4967882;28;20055;-57
2024/01/03 04:55:26;;;;;;;25.35;23.25;;;;;;;2.15;100.00;100594.00;4966467;28;20054;-58
2024/01/03 04:57:54;;;;;;;29.25;26.95;;;;;;;2.16;100.00;100593.03;4967427;28;20141;-58
2024/01/03 05:00:21;;;;;;;27.98;25.67;;;;;;;2.21;100.00;100596.84;4965832;28;20055;-55
2024/01/03 05:02:48;;;;;;;28.30;26.00;;;;;;;5.37;100.00;100591.88;4965415;28;20685;-55
2024/01/03 05:05:15;;;;;;;32.45;30.58;;;;;;;2.68;100.00;100595.59;4966150;28;20092;-55
2024/01/03 05:07:42;;;;;;;33.03;30.63;;;;;;;2.36;100.00;100598.88;4964790;28;20046;-55
2024/01/03 05:10:09;;;;;;;31.20;29.00;;;;;;;2.29;100.00;100602.13;4967605;28;20484;-55
2024/01/03 05:12:36;;;;;;;29.33;27.23;;;;;;;2.29;100.00;100596.06;4964772;28;20102;-55
2024/01/03 05:15:06;;;;;;;26.67;24.77;;;;;;;2.27;100.00;100600.66;4967225;28;20047;-55
2024/01/03 05:17:33;;;;;;;31.05;28.70;;;;;;;2.29;100.00;100598.69;4962378;28;20055;-55
2024/01/03 05:20:00;;;;;;;28.60;26.67;;;;;;;2.07;100.00;100600.03;4964089;28;20063;-57
2024/01/03 05:22:27;;;;;;;30.02;27.92;;;;;;;2.02;100.00;100597.84;4963279;28;20055;-56
2024/01/03 05:24:54;;;;;;;32.05;29.45;;;;;;;2.05;100.00;100604.56;4962541;28;20047;-55
2024/01/03 05:27:22;;;;;;;29.80;27.63;;;;;;;2.27;100.00;100603.28;4960280;28;20069;-55
2024/01/03 05:29:49;;;;;;;27.17;25.27;;;;;;;2.01;100.00;100604.06;4949883;28;20074;-63
2024/01/03 05:32:17;;;;;;;27.85;25.95;;;;;;;1.99;100.00;100611.25;4955786;28;20063;-62
2024/01/03 05:34:45;;;;;;;30.45;28.27;;;;;;;1.95;100.00;100604.69;4968078;28;20050;-55
2024/01/03 05:37:12;;;;;;;29.35;27.25;;;;;;;2.08;100.00;100606.88;4962734;28;20058;-57
2024/01/03 05:39:39;;;;;;;31.08;28.98;;;;;;;2.19;100.00;100606.66;4962192;28;20431;-57
2024/01/03 05:42:07;;;;;;;28.85;26.90;;;;;;;2.26;100.00;100597.19;4966808;28;20519;-57
2024/01/03 05:44:34;;;;;;;28.23;26.23;;;;;;;2.26;100.00;100598.97;4958594;28;20051;-55
2024/01/03 05:47:01;;;;;;;28.90;26.90;;;;;;;2.40;100.00;100602.84;4966750;28;20063;-55
2024/01/03 05:49:30;;;;;;;30.17;27.98;;;;;;;2.53;100.00;100584.88;4960688;28;20051;-55
2024/01/03 05:51:56;;;;;;;29.52;27.50;;;;;;;2.52;100.00;100586.69;4964955;28;20051;-55
2024/01/03 05:54:24;;;;;;;32.05;29.75;;;;;;;2.53;100.00;100588.31;4963441;28;20054;-55
2024/01/03 05:56:51;;;;;;;28.88;27.02;;;;;;;2.40;100.00;100594.97;4961141;28;20210;-55
2024/01/03 05:59:18;;;;;;;32.33;29.90;;;;;;;2.64;100.00;100589.84;4960886;28;20113;-58
2024/01/03 06:01:46;;;;;;;26.95;25.15;;;;;;;2.64;100.00;100586.41;4961504;28;20493;-54
2024/01/03 06:04:14;;;;;;;24.42;22.80;;;;;;;2.47;100.00;100586.31;4962599;28;20499;-57
2024/01/03 06:06:42;;;;;;;26.02;24.33;;;;;;;2.68;100.00;100585.94;4956028;28;20473;-57
2024/01/03 06:09:09;;;;;;;26.00;24.30;;;;;;;2.59;100.00;100586.88;4957934;28;20432;-57
2024/01/03 06:11:36;;;;;;;23.77;22.38;;;;;;;2.69;100.00;100578.88;4962274;28;20539;-57
2024/01/03 06:14:04;;;;;;;23.75;22.35;;;;;;;2.64;100.00;100583.81;4961760;28;20054;-57
2024/01/03 06:16:31;;;;;;;25.65;24.15;;;;;;;2.56;100.00;100581.94;4973385;28;20050;-55
2024/01/03 06:18:58;;;;;;;25.70;24.10;;;;;;;2.54;100.00;100578.66;4958798;28;20047;-56
2024/01/03 06:21:26;;;;;;;26.30;24.25;;;;;;;2.65;100.00;100586.25;4954701;28;20047;-55
2024/01/03 06:23:54;;;;;;;22.77;21.38;;;;;;;2.67;100.00;100588.72;4954387;28;20062;-57
2024/01/03 06:26:23;;;;;;;22.75;21.35;;;;;;;2.88;100.00;100583.06;4955410;28;20055;-57
2024/01/03 06:28:50;;;;;;;28.73;27.08;;;;;;;2.94;100.00;100578.00;4964643;28;20117;-57
2024/01/03 06:31:21;;;;;;;24.40;22.83;;;;;;;2.87;100.00;100582.22;4960103;28;20058;-56
2024/01/03 06:33:48;;;;;;;23.70;22.30;;;;;;;3.14;100.00;100578.53;4962945;28;20066;-57
2024/01/03 06:36:15;;;;;;;25.33;23.38;;;;;;;3.10;100.00;100592.97;4955440;28;20058;-57
2024/01/03 06:38:42;;;;;;;24.25;22.90;;;;;;;3.33;100.00;100581.84;4962553;28;20046;-57
2024/01/03 06:41:10;;;;;;;23.65;22.23;;;;;;;3.49;100.00;100583.69;4966052;28;20055;-57
2024/01/03 06:43:37;;;;;;;22.77;21.38;;;;;;;3.54;100.00;100582.22;4963243;28;20055;-57
2024/01/03 06:46:04;;;;;;;26.15;24.55;;;;;;;3.57;100.00;100581.06;4962300;28;20048;-57
2024/01/03 06:48:31;;;;;;;27.08;25.08;;;;;;;3.50;100.00;100583.50;4959925;28;20047;-55
2024/01/03 06:51:01;;;;;;;23.92;22.52;;;;;;;3.62;100.00;100582.22;4956836;28;20062;-55
2024/01/03 06:53:28;;;;;;;25.60;24.00;;;;;;;3.65;100.00;100584.50;4959529;28;20504;-57
2024/01/03 06:55:55;;;;;;;26.55;24.52;;;;;;;3.61;100.00;100580.56;4960694;28;20043;-57
2024/01/03 06:58:24;;;;;;;26.23;24.63;;;;;;;3.62;100.00;100570.88;4954910;28;20063;-57
2024/01/03 07:00:51;;;;;;;26.25;24.65;;;;;;;3.48;100.00;100582.03;4963710;28;20066;-57
2024/01/03 07:03:17;;;;;;;27.48;25.58;;;;;;;3.56;100.00;100590.75;4958933;28;20057;-57
2024/01/03 07:05:44;;;;;;;26.45;24.75;;;;;;;4.02;100.00;100591.06;4963661;28;20046;-57
2024/01/03 07:08:11;;;;;;;26.90;25.10;;;;;;;3.84;100.00;100596.50;4961325;28;20047;-57
2024/01/03 07:10:38;;;;;;;26.50;24.80;;;;;;;4.10;100.00;100595.50;4960620;28;20062;-55
2024/01/03 07:13:05;;;;;;;26.55;24.75;;;;;;;4.03;100.00;100587.47;4959480;28;20432;-60
2024/01/03 07:15:33;;;;;;;25.67;24.08;;;;;;;4.16;100.00;100586.13;4962234;28;20046;-57
2024/01/03 07:18:01;;;;;;;25.80;24.20;;;;;;;4.17;100.00;100580.69;4961265;28;20125;-60
2024/01/03 07:20:27;;;;;;;26.23;24.48;;;;;;;4.12;100.00;100568.06;4962778;28;20050;-58
2024/01/03 07:22:57;;;;;;;27.08;25.05;;;;;;;4.10;100.00;100572.66;4960647;28;20058;-56
2024/01/03 07:25:24;;;;;;;26.70;24.80;;;;;;;4.23;100.00;100558.16;4956861;28;20555;-62
2024/01/03 07:27:51;;;;;;;26.48;24.67;;;;;;;4.40;100.00;100556.31;4958930;28;20491;-57
2024/01/03 07:30:17;;;;;;;25.98;24.27;;;;;;;4.45;100.00;100553.97;4962652;28;20051;-57
2024/01/03 07:32:46;;;;;;;25.98;24.30;;;;;;;4.59;100.00;100564.63;4967437;28;20513;-56
2024/01/03 07:35:13;;;;;;;26.27;24.77;;;;;;;4.58;100.00;100567.44;4959622;28;20303;-55
2024/01/03 07:37:39;;;;;;;24.58;23.00;;;;;;;5.27;100.00;100580.75;4960305;28;20522;-58
2024/01/03 07:40:08;;;;;;;24.83;23.33;;;;;;;5.04;100.00;100572.81;4963693;28;20405;-55
2024/01/03 07:42:35;;;;;;;24.75;23.25;;;;;;;4.74;100.00;100580.50;4967085;28;20062;-55
2024/01/03 07:45:02;;;;;;;24.90;23.30;;;;;;;4.98;100.00;100573.50;4962985;28;20057;-55
2024/01/03 07:47:29;;;;;;;26.10;24.40;;;;;;;4.92;100.00;100579.44;4968754;28;20485;-55
2024/01/03 07:49:57;;;;;;;27.13;25.33;;;;;;;5.12;100.00;100582.50;4966459;28;20472;-55
2024/01/03 07:52:24;;;;;;;26.25;24.65;;;;;;;5.30;100.00;100566.41;4962347;28;20093;-55
2024/01/03 07:54:51;;;;;;;27.20;25.55;;;;;;;5.54;100.00;100562.75;4963531;28;20055;-55
2024/01/03 07:57:17;;;;;;;27.85;26.05;;;;;;;5.77;100.00;100570.66;4970130;28;20596;-55
2024/01/03 07:59:45;;;;;;;27.95;26.10;;;;;;;6.06;100.00;100575.22;4965518;28;20050;-55
2024/01/03 08:02:12;;;;;;;27.20;25.40;;;;;;;6.24;100.00;100570.41;4964557;28;20102;-55
2024/01/03 08:04:40;;;;;;;25.88;24.38;;;;;;;6.10;100.00;100568.56;4963181;28;20050;-55
2024/01/03 08:07:08;;;;;;;24.20;22.70;;;;;;;6.17;100.00;100561.56;4964533;28;20054;-55
2024/01/03 08:09:37;;;;;;;26.65;24.83;;;;;;;6.26;100.00;100568.38;4958461;28;20251;-55
2024/01/03 08:12:04;;;;;;;25.85;23.80;;;;;;;5.90;100.00;100576.97;4966353;28;20059;-57
2024/01/03 08:14:31;;;;;;;25.25;23.65;;;;;;;6.26;100.00;100586.03;4960826;28;20058;-55
2024/01/03 08:16:58;;;;;;;22.92;21.30;;;;;;;6.00;100.00;100591.75;4961336;28;20047;-55
2024/01/03 08:19:25;;;;;;;22.73;21.30;;;;;;;6.18;100.00;100577.22;4964569;28;20520;-55
2024/01/03 08:21:52;;;;;;;23.15;21.75;;;;;;;6.28;100.00;100573.50;4960407;28;20057;-55
2024/01/03 08:24:20;;;;;;;26.60;24.90;;;;;;;6.26;100.00;100573.66;4964584;28;20056;-55
2024/01/03 08:26:49;;;;;;;21.55;20.05;;;;;;;6.07;100.00;100577.66;4966615;28;20046;-57
2024/01/03 08:29:15;;;;;;;20.85;19.55;;;;;;;6.13;100.00;100569.03;4970671;28;20481;-57
2024/01/03 08:31:42;;;;;;;23.60;22.30;;;;;;;6.46;100.00;100565.22;4974221;28;20051;-55
2024/01/03 08:34:09;;;;;;;24.70;23.33;;;;;;;6.60;100.00;100557.31;4967862;28;20093;-57
2024/01/03 08:36:40;;;;;;;23.80;22.50;;;;;;;6.60;100.00;100545.94;4965148;28;20082;-57
2024/01/03 08:39:07;;;;;;;23.60;22.20;;;;;;;6.55;100.00;100543.84;4970358;28;20473;-55
2024/01/03 08:41:36;;;;;;;22.80;21.42;;;;;;;6.65;100.00;100533.78;4973193;28;20521;-57
2024/01/03 08:44:05;;;;;;;25.83;24.05;;;;;;;6.83;100.00;100520.19;4963397;28;20051;-55
2024/01/03 08:46:34;;;;;;;28.92;27.23;;;;;;;6.88;100.00;100523.13;4958968;28;20059;-57
2024/01/03 08:49:02;;;;;;;27.58;25.88;;;;;;;6.96;100.00;100524.00;4963266;28;20323;-55
2024/01/03 08:51:29;;;;;;;26.55;25.05;;;;;;;7.11;100.00;100519.50;4967123;28;20057;-57
2024/01/03 08:53:56;;;;;;;27.33;25.73;;;;;;;7.14;100.00;100510.38;4963178;28;20532;-57
2024/01/03 08:56:23;;;;;;;26.25;24.67;;;;;;;7.22;100.00;100511.06;4970623;28;20515;-57
2024/01/03 08:58:51;;;;;;;26.60;25.02;;;;;;;7.36;100.00;100509.38;4966809;28;20061;-57
2024/01/03 09:01:19;;;;;;;25.67;24.05;;;;;;;7.47;100.00;100510.66;4965299;28;20077;-57
2024/01/03 09:03:46;;;;;;;24.02;22.73;;;;;;;7.51;100.00;100502.19;4967506;28;20047;-56
2024/01/03 09:06:14;;;;;;;28.80;26.85;;;;;;;7.68;100.00;100501.91;4970444;28;20050;-56
2024/01/03 09:08:41;;;;;;;28.08;26.48;;;;;;;7.77;100.00;100498.91;4964799;28;20055;-56
2024/01/03 09:11:11;;;;;;;26.75;25.25;;;;;;;7.85;100.00;100491.84;4965830;28;20054;-57
2024/01/03 09:13:38;;;;;;;26.75;25.05;;;;;;;8.00;100.00;100484.63;4966835;28;20494;-56
2024/01/03 09:16:09;;;;;;;24.65;23.15;;;;;;;8.03;100.00;100482.41;4964451;28;20047;-56
2024/01/03 09:18:36;;;;;;;24.10;22.70;;;;;;;8.04;100.00;100483.22;4965042;28;20090;-57
2024/01/03 09:21:03;;;;;;;24.85;23.45;;;;;;;8.11;100.00;100472.66;4967121;28;20520;-57
2024/01/03 09:23:30;;;;;;;22.90;21.70;;;;;;;8.21;100.00;100473.97;4965572;28;20043;-56
2024/01/03 09:25:58;;;;;;;25.58;24.08;;;;;;;8.23;100.00;100465.84;4956155;28;20127;-57
2024/01/03 09:28:25;;;;;;;24.60;23.20;;;;;;;8.15;100.00;100474.75;4964444;28;20070;-57
2024/01/03 09:30:52;;;;;;;21.27;20.08;;;;;;;8.15;100.00;100479.22;4961140;28;20055;-57
2024/01/03 09:33:20;;;;;;;21.83;20.48;;;;;;;8.18;100.00;100482.28;4957196;28;20454;-57
2024/01/03 09:35:47;;;;;;;22.90;21.60;;;;;;;8.24;100.00;100480.69;4957548;28;20062;-55
2024/01/03 09:38:14;;;;;;;23.10;21.80;;;;;;;8.26;100.00;100490.06;4956715;28;20055;-55
2024/01/03 09:40:42;;;;;;;20.60;19.50;;;;;;;8.25;100.00;100492.91;4967538;28;20496;-57
2024/01/03 09:43:10;;;;;;;25.27;23.23;;;;;;;8.26;100.00;100497.19;4964705;28;20212;-55
2024/01/03 09:45:37;;;;;;;22.70;20.90;;;;;;;8.22;100.00;100490.66;4955864;28;20050;-55
2024/01/03 09:48:04;;;;;;;24.50;22.92;;;;;;;8.26;100.00;100487.44;4966006;28;20055;-55
2024/01/03 09:50:33;;;;;;;22.48;20.88;;;;;;;8.26;100.00;100490.06;4958176;28;20059;-61
2024/01/03 09:53:01;;;;;;;23.25;21.75;;;;;;;8.22;100.00;100486.16;4970564;28;20525;-60
2024/01/03 09:55:29;;;;;;;25.05;23.25;;;;;;;8.21;100.00;100483.72;4954479;28;20058;-55
2024/01/03 09:57:56;;;;;;;23.15;21.58;;;;;;;8.19;100.00;100475.16;4961028;28;20047;-55
2024/01/03 10:00:29;;;;;;;29.83;27.70;;;;;;;8.10;100.00;100476.34;4957490;28;20059;-60
2024/01/03 10:03:01;;;;;;;35.33;33.22;;;;;;;8.04;100.00;100462.06;4964759;28;20556;-55
2024/01/03 10:05:28;;;;;;;30.40;28.40;;;;;;;8.01;100.00;100471.19;4959872;28;20070;-60
2024/01/03 10:07:56;;;;;;;30.30;28.40;;;;;;;8.15;100.00;100474.75;4958643;28;20318;-62
2024/01/03 10:10:31;;;;;;;34.33;32.22;;;;;;;8.18;100.00;100474.34;4965894;28;20602;-62
2024/01/03 10:13:13;;;;;;;30.52;28.52;;;;;;;8.13;100.00;100463.53;4968052;28;20047;-56
2024/01/03 10:15:41;;;;;;;33.60;30.77;;;;;;;8.09;100.00;100464.13;4960747;28;20134;-62
2024/01/03 10:18:09;;;;;;;32.30;30.20;;;;;;;8.12;100.00;100469.84;4959139;28;20448;-62
2024/01/03 10:20:36;;;;;;;31.60;29.50;;;;;;;8.15;100.00;100464.16;4958850;28;20042;-61
2024/01/03 10:23:09;;;;;;;28.08;26.27;;;;;;;8.15;100.00;100460.69;4972053;28;20051;-62
2024/01/03 10:25:36;;;;;;;26.33;24.73;;;;;;;8.18;100.00;100455.84;4965777;28;20047;-62
2024/01/03 10:28:04;;;;;;;28.83;27.13;;;;;;;8.18;100.00;100458.47;4961349;28;20443;-63
2024/01/03 10:30:31;;;;;;;36.03;33.75;;;;;;;8.06;100.00;100452.09;4964216;28;20054;-62
2024/01/03 10:32:59;;;;;;;33.30;31.00;;;;;;;8.15;100.00;100452.75;4951746;28;20051;-57
2024/01/03 10:35:30;;;;;;;39.47;36.88;;;;;;;8.18;100.00;100441.78;4966123;28;20074;-62
2024/01/03 10:37:59;;;;;;;37.13;34.72;;;;;;;8.13;100.00;100439.72;4957811;28;20406;-62
2024/01/03 10:40:28;;;;;;;32.30;30.20;;;;;;;8.06;100.00;100440.72;4961149;28;20109;-57
2024/01/03 10:42:56;;;;;;;34.33;32.05;;;;;;;8.10;100.00;100441.94;4962294;28;20055;-56
2024/01/03 10:45:23;;;;;;;33.83;31.52;;;;;;;8.11;100.00;100431.19;4964800;28;20054;-62
2024/01/03 10:47:50;;;;;;;30.13;28.02;;;;;;;8.12;100.00;100429.34;4956963;28;20647;-57
2024/01/03 10:50:18;;;;;;;30.10;28.00;;;;;;;8.04;100.00;100433.78;4956595;28;20057;-57
2024/01/03 10:52:45;;;;;;;32.60;30.30;;;;;;;8.06;100.00;100438.88;4956764;28;20065;-56
2024/01/03 10:55:18;;;;;;;36.60;34.00;;;;;;;7.90;100.00;100439.22;4970529;28;20061;-57
2024/01/03 10:57:57;;;;;;;49.03;45.83;;;;;;;8.09;100.00;100432.38;4961795;28;20059;-56
2024/01/03 11:00:38;;;;;;;45.83;42.92;;;;;;;8.10;100.00;100431.38;4963955;28;20109;-56
2024/01/03 11:03:16;;;;;;;40.63;38.03;;;;;;;8.11;100.00;100427.69;4963108;28;20504;-57
2024/01/03 11:05:53;;;;;;;48.65;44.95;;;;;;;8.14;100.00;100417.56;4959639;28;20059;-57
2024/01/03 11:08:22;;;;;;;48.20;45.10;;;;;;;8.17;100.00;100417.16;4964571;28;20066;-55
2024/01/03 11:10:51;;;;;;;44.60;41.50;;;;;;;8.33;100.00;100417.84;4957971;28;20133;-55
2024/01/03 11:13:30;;;;;;;33.05;31.00;;;;;;;8.62;100.00;100420.19;4966351;28;20055;-57